Yellow Mule RAWS (NWS)

Elevation
9200ft
Aggregated by Synoptic Data
Date/Time Wind Direction Wind Speed knots Wind Gust knots RH % Accumulated Precip Inches Air Temp Fahrenheit
2024-06-18 00:04 WSW 9 12 99 5.9 24
2024-06-17 23:04 WNW 7 20 99 5.9 24
2024-06-17 22:04 NNW 7 17 100 5.9 24
2024-06-17 21:04 SSW 5 19 99 5.9 24
2024-06-17 20:04 SSW 16 22 99 5.9 25
2024-06-17 19:04 SW 6 18 99 5.9 26
2024-06-17 18:04 SSW 15 20 98 5.9 27
2024-06-17 17:04 SSW 13 23 95 5.9 28
2024-06-17 16:04 SSW 11 17 95 5.9 28
2024-06-17 15:04 SSW 7 21 91 5.85 30
2024-06-17 14:04 S 6 11 95 5.83 31
2024-06-17 13:04 S 3 8 97 5.81 31
2024-06-17 12:04 S 4 10 95 5.74 31
2024-06-17 11:04 SW 6 11 97 5.74 30
2024-06-17 10:04 S 8 13 100 5.74 29
2024-06-17 09:04 SSE 11 30 94 5.74 32
2024-06-17 08:04 S 13 25 77 5.74 32
2024-06-17 07:04 S 20 30 64 5.74 36
2024-06-17 06:04 SE 10 19 78 5.74 35
2024-06-17 05:04 SE 12 18 81 5.74 34
2024-06-17 04:04 SSE 10 17 83 5.74 34
2024-06-17 03:04 SE 10 17 69 5.74 36
2024-06-17 02:04 SSE 11 16 54 5.74 38
2024-06-17 01:04 S 6 10 46 5.74 37
2024-06-17 00:04 SSE 4 10 49 5.74 37
2024-06-16 23:04 SE 6 11 46 5.74 38
2024-06-16 22:04 SE 6 13 42 5.74 40
2024-06-16 21:04 SSE 6 15 43 5.74 40
2024-06-16 20:04 SSE 10 19 39 5.74 43
2024-06-16 19:04 SSE 12 24 34 5.74 46
2024-06-16 18:04 SE 11 26 37 5.74 46
2024-06-16 17:04 SSE 14 24 31 5.74 48
2024-06-16 16:04 S 11 21 30 5.74 47
2024-06-16 15:04 S 10 23 30 5.74 45
2024-06-16 14:04 S 6 21 27 5.74 45
2024-06-16 13:04 SSW 11 23 29 5.74 42
2024-06-16 12:04 SSW 13 25 29 5.74 40
2024-06-16 11:04 SSW 14 26 24 5.74 39
2024-06-16 10:04 S 13 23 32 5.74 37
2024-06-16 09:04 SSE 10 23 46 5.74 33
2024-06-16 08:04 S 6 22 63 5.74 29
2024-06-16 07:04 SSW 11 18 66 5.74 27
2024-06-16 06:04 SSE 4 13 65 5.74 26
2024-06-16 05:04 SSW 9 15 68 5.74 26
2024-06-16 04:04 SSW 10 16 73 5.74 26
2024-06-16 03:04 SW 11 16 78 5.74 27
2024-06-16 02:04 SSW 7 10 88 5.74 27
2024-06-16 01:04 SSW 7 14 95 5.74 28
2024-06-16 00:04 SSW 5 14 95 5.74 30